Time;durP1;ratioP1;P1;durP2;ratioP2;P2;SDS_P1;SDS_P2;PMS_P1;PMS_P2;Temp;Humidity;BMP_temperature;BMP_pressure;BME280_temperature;BME280_humidity;BME280_pressure;Samples;Min_cycle;Max_cycle;Signal;HPM_P1;HPM_P2
2021/08/31 00:01:00;;;;;;;6.68;5.97;;;17.00;99.90;;;;;;5011603;28;20172;-85
2021/08/31 00:03:26;;;;;;;5.97;5.25;;;16.90;99.90;;;;;;5012583;28;20026;-85
2021/08/31 00:05:51;;;;;;;5.55;5.05;;;17.00;99.90;;;;;;5011933;28;20096;-85
2021/08/31 00:08:17;;;;;;;7.38;5.90;;;16.90;99.90;;;;;;5011907;28;20120;-85
2021/08/31 00:10:42;;;;;;;6.60;5.88;;;16.90;99.90;;;;;;5010386;28;20030;-85
2021/08/31 00:13:08;;;;;;;7.13;6.32;;;16.90;99.90;;;;;;5012295;28;20104;-85
2021/08/31 00:15:34;;;;;;;6.68;5.97;;;16.90;99.90;;;;;;5012060;28;20445;-85
2021/08/31 00:18:01;;;;;;;6.65;5.72;;;16.80;99.90;;;;;;5012324;28;20044;-86
2021/08/31 00:20:30;;;;;;;6.38;5.78;;;16.70;99.90;;;;;;5011684;28;20560;-85
2021/08/31 00:22:56;;;;;;;5.95;5.32;;;16.70;99.90;;;;;;5011521;28;20026;-86
2021/08/31 00:25:22;;;;;;;6.50;5.90;;;16.70;99.90;;;;;;5011628;28;20022;-85
2021/08/31 00:27:48;;;;;;;6.22;5.63;;;16.70;99.90;;;;;;5012349;28;20137;-85
2021/08/31 00:30:14;;;;;;;6.22;5.63;;;16.70;99.90;;;;;;5011982;28;20033;-85
2021/08/31 00:32:39;;;;;;;7.53;5.93;;;16.70;99.90;;;;;;5011111;28;20072;-85
2021/08/31 00:35:05;;;;;;;6.45;5.85;;;16.60;99.90;;;;;;5011530;28;20076;-85
2021/08/31 00:37:31;;;;;;;5.95;5.45;;;16.60;99.90;;;;;;5012026;28;20410;-85
2021/08/31 00:39:57;;;;;;;6.65;6.05;;;16.60;99.90;;;;;;5011658;28;20041;-85
2021/08/31 00:42:22;;;;;;;7.57;5.75;;;16.60;99.90;;;;;;5012012;28;20026;-85
2021/08/31 00:44:48;;;;;;;6.47;5.88;;;16.50;99.90;;;;;;5010979;28;20112;-85
2021/08/31 00:47:14;;;;;;;6.75;6.15;;;16.50;99.90;;;;;;5011108;28;20022;-85
2021/08/31 00:49:40;;;;;;;6.72;6.03;;;16.50;99.90;;;;;;5011492;28;20045;-85
2021/08/31 00:52:06;;;;;;;8.98;6.28;;;16.40;99.90;;;;;;5011381;28;20018;-85
2021/08/31 00:54:32;;;;;;;9.38;6.45;;;16.40;99.90;;;;;;5011837;28;20092;-85
2021/08/31 00:57:00;;;;;;;6.95;5.95;;;16.40;99.90;;;;;;5011270;28;20026;-85
2021/08/31 00:59:26;;;;;;;8.15;6.60;;;16.40;99.90;;;;;;5011030;28;20033;-85
2021/08/31 01:01:55;;;;;;;6.38;5.78;;;16.40;99.90;;;;;;5011045;28;20033;-85
2021/08/31 01:04:23;;;;;;;9.38;7.10;;;16.30;99.90;;;;;;5011072;28;20398;-85
2021/08/31 01:06:53;;;;;;;7.63;6.53;;;16.30;99.90;;;;;;5011678;28;20026;-85
2021/08/31 01:09:22;;;;;;;6.80;6.03;;;16.30;99.90;;;;;;5011558;28;20036;-85
2021/08/31 01:11:50;;;;;;;7.57;6.22;;;16.20;99.90;;;;;;5011160;28;20157;-86
2021/08/31 01:14:17;;;;;;;7.10;6.40;;;16.20;99.90;;;;;;5010993;28;20030;-85
2021/08/31 01:16:43;;;;;;;6.25;5.65;;;16.30;99.90;;;;;;5011082;28;20493;-85
2021/08/31 01:19:10;;;;;;;6.40;5.80;;;16.40;99.90;;;;;;5014893;28;22208;-85
2021/08/31 01:21:36;;;;;;;9.18;6.60;;;16.40;99.90;;;;;;5015903;28;20037;-85
2021/08/31 01:24:02;;;;;;;7.70;6.90;;;16.40;99.90;;;;;;5015731;28;20474;-85
2021/08/31 01:26:28;;;;;;;8.38;7.05;;;16.40;99.90;;;;;;5014993;28;20545;-85
2021/08/31 01:28:54;;;;;;;8.07;6.45;;;16.50;99.90;;;;;;5014731;28;20026;-85
2021/08/31 01:31:20;;;;;;;8.05;6.53;;;16.50;99.90;;;;;;5014499;28;20055;-85
2021/08/31 01:33:46;;;;;;;7.40;6.70;;;16.50;99.90;;;;;;5015236;28;20363;-85
2021/08/31 01:36:23;;;;;;;8.23;6.95;;;16.50;99.90;;;;;;5015104;28;20394;-85
2021/08/31 01:38:54;;;;;;;8.90;6.50;;;16.50;99.90;;;;;;5014774;28;20037;-85
2021/08/31 01:41:20;;;;;;;9.40;6.82;;;16.30;99.90;;;;;;5015438;28;20046;-85
2021/08/31 01:43:46;;;;;;;7.53;6.50;;;16.40;99.90;;;;;;5014274;28;20033;-85
2021/08/31 01:46:12;;;;;;;7.57;6.65;;;16.40;99.90;;;;;;5014589;28;20037;-86
2021/08/31 01:48:38;;;;;;;8.15;6.88;;;16.30;99.90;;;;;;5015067;28;20022;-85
2021/08/31 01:51:06;;;;;;;8.23;6.65;;;16.20;99.90;;;;;;5014749;28;20494;-85
2021/08/31 01:53:35;;;;;;;7.10;6.40;;;16.10;99.90;;;;;;5014320;28;20026;-85
2021/08/31 01:56:01;;;;;;;7.90;7.10;;;16.00;99.90;;;;;;5015277;28;20458;-86
2021/08/31 01:58:27;;;;;;;7.53;6.80;;;16.10;99.90;;;;;;5014242;28;20025;-85
2021/08/31 02:00:53;;;;;;;7.43;6.68;;;15.90;99.90;;;;;;5014797;28;20038;-85
2021/08/31 02:03:20;;;;;;;8.48;7.35;;;16.00;99.90;;;;;;5014730;28;20125;-85
2021/08/31 02:05:46;;;;;;;7.70;6.90;;;16.00;99.90;;;;;;5014591;28;20033;-85
2021/08/31 02:08:12;;;;;;;8.50;7.53;;;16.00;99.90;;;;;;5014035;28;20026;-85
2021/08/31 02:10:38;;;;;;;8.30;7.40;;;16.10;99.90;;;;;;5014238;28;20116;-85
2021/08/31 02:13:04;;;;;;;8.52;7.63;;;16.00;99.90;;;;;;5013863;28;20032;-85
2021/08/31 02:15:29;;;;;;;9.02;8.13;;;16.00;99.90;;;;;;5014873;28;20116;-85
2021/08/31 02:17:55;;;;;;;8.93;8.02;;;16.20;99.90;;;;;;5013851;28;20034;-85
2021/08/31 02:20:21;;;;;;;8.18;7.38;;;16.10;99.90;;;;;;5014487;28;20045;-85
2021/08/31 02:22:46;;;;;;;8.35;7.47;;;16.10;99.90;;;;;;5013681;28;20525;-85
2021/08/31 02:25:12;;;;;;;9.35;8.15;;;16.20;99.90;;;;;;5013972;28;20037;-85
2021/08/31 02:27:37;;;;;;;8.73;7.93;;;16.20;99.90;;;;;;5014642;28;20034;-85
2021/08/31 02:30:06;;;;;;;8.25;7.47;;;16.20;99.90;;;;;;5013869;28;20037;-85
2021/08/31 02:32:32;;;;;;;8.43;7.30;;;16.20;99.90;;;;;;5013589;28;20113;-85
2021/08/31 02:34:58;;;;;;;8.60;7.72;;;16.20;99.90;;;;;;5014027;28;20058;-85
2021/08/31 02:37:23;;;;;;;9.48;8.07;;;16.10;99.90;;;;;;5013527;28;20123;-85
2021/08/31 02:39:49;;;;;;;9.40;8.05;;;16.10;99.90;;;;;;5013548;28;20509;-85
2021/08/31 02:42:15;;;;;;;9.48;8.13;;;16.10;99.90;;;;;;5011979;28;20382;-85
2021/08/31 02:44:40;;;;;;;9.10;8.20;;;16.20;99.90;;;;;;5013633;28;20109;-85
2021/08/31 02:47:06;;;;;;;10.63;7.93;;;16.20;99.90;;;;;;5013450;28;20156;-85
2021/08/31 02:49:32;;;;;;;8.93;8.02;;;16.30;99.90;;;;;;5013382;28;20034;-85
2021/08/31 02:51:58;;;;;;;9.38;7.80;;;16.20;99.90;;;;;;5013277;28;20125;-85
2021/08/31 02:54:23;;;;;;;9.23;8.30;;;16.20;99.90;;;;;;5013840;28;20390;-85
2021/08/31 02:56:49;;;;;;;9.00;8.10;;;16.20;99.90;;;;;;5013249;28;20065;-86
2021/08/31 02:59:15;;;;;;;8.80;8.00;;;16.20;99.90;;;;;;5013853;28;20116;-85
2021/08/31 03:02:22;;;;;;;8.82;8.02;;;16.20;99.90;;;;;;5013205;28;20041;-85
2021/08/31 03:04:29;;;;;;;9.68;8.30;;;16.10;99.90;;;;;;5008704;28;20042;-85
2021/08/31 03:06:55;;;;;;;8.80;8.00;;;16.10;99.90;;;;;;5012985;28;20070;-85
2021/08/31 03:09:20;;;;;;;8.90;8.00;;;16.10;99.90;;;;;;5013943;28;20058;-85
2021/08/31 03:11:46;;;;;;;9.43;8.20;;;16.10;99.90;;;;;;5013625;28;20101;-85
2021/08/31 03:14:11;;;;;;;9.27;8.27;;;16.20;99.90;;;;;;5012557;28;20030;-85
2021/08/31 03:16:37;;;;;;;11.40;8.55;;;16.30;99.90;;;;;;5012903;28;20034;-85
2021/08/31 03:19:03;;;;;;;9.43;8.40;;;16.20;99.90;;;;;;5013231;28;20057;-85
2021/08/31 03:21:30;;;;;;;10.95;8.43;;;16.20;99.90;;;;;;5013329;28;20088;-85
2021/08/31 03:23:56;;;;;;;10.10;8.13;;;16.20;99.90;;;;;;5012215;28;20088;-85
2021/08/31 03:26:21;;;;;;;10.18;9.18;;;16.20;99.90;;;;;;5012542;28;20026;-85
2021/08/31 03:28:47;;;;;;;9.55;8.63;;;16.20;99.90;;;;;;5012615;28;20128;-85
2021/08/31 03:31:13;;;;;;;10.63;9.52;;;16.10;99.90;;;;;;5013005;28;20406;-85
2021/08/31 03:33:38;;;;;;;11.27;9.13;;;16.10;99.90;;;;;;5012819;28;20026;-85
2021/08/31 03:36:07;;;;;;;10.45;9.35;;;16.10;99.90;;;;;;5012755;28;20021;-85
2021/08/31 03:38:33;;;;;;;10.00;8.60;;;16.10;99.90;;;;;;5012037;28;20069;-85
2021/08/31 03:40:58;;;;;;;11.82;10.63;;;16.10;99.90;;;;;;5011633;28;20061;-85
2021/08/31 03:43:24;;;;;;;10.43;9.40;;;16.20;99.90;;;;;;5012727;28;20022;-85
2021/08/31 03:45:49;;;;;;;11.02;9.88;;;16.10;99.90;;;;;;5012882;28;20037;-85
2021/08/31 03:48:15;;;;;;;11.40;10.20;;;16.10;99.90;;;;;;5009259;28;20030;-85
2021/08/31 03:50:41;;;;;;;10.95;9.82;;;16.10;99.90;;;;;;5012163;28;20069;-85
2021/08/31 03:53:06;;;;;;;11.35;10.15;;;16.10;99.90;;;;;;5012257;28;20105;-85
2021/08/31 03:55:32;;;;;;;10.90;9.80;;;16.10;99.90;;;;;;5012465;28;20042;-85
2021/08/31 03:57:58;;;;;;;12.10;10.90;;;16.10;99.90;;;;;;5012060;28;20030;-85
2021/08/31 04:00:24;;;;;;;11.82;10.63;;;16.00;99.90;;;;;;5012911;28;20465;-85
2021/08/31 04:02:49;;;;;;;13.38;10.82;;;15.90;99.90;;;;;;5012345;28;20517;-85
2021/08/31 04:05:15;;;;;;;12.30;11.10;;;16.00;99.90;;;;;;5012006;28;20083;-85
2021/08/31 04:07:40;;;;;;;11.93;10.73;;;16.00;99.90;;;;;;5011320;28;20100;-85
2021/08/31 04:10:07;;;;;;;12.70;10.38;;;15.90;99.90;;;;;;5012878;28;20038;-86
2021/08/31 04:12:32;;;;;;;13.00;11.70;;;15.90;99.90;;;;;;5012338;28;20054;-85
2021/08/31 04:14:58;;;;;;;12.48;11.20;;;15.70;99.90;;;;;;5012134;28;20053;-85
2021/08/31 04:17:23;;;;;;;12.90;11.45;;;15.80;99.90;;;;;;5011861;28;20040;-85
2021/08/31 04:19:49;;;;;;;15.35;13.07;;;15.80;99.90;;;;;;5011802;28;20073;-85
2021/08/31 04:22:14;;;;;;;14.45;12.80;;;15.80;99.90;;;;;;5012004;28;20085;-85
2021/08/31 04:24:40;;;;;;;14.32;12.93;;;15.80;99.90;;;;;;5011494;28;20061;-86
2021/08/31 04:27:06;;;;;;;13.85;12.45;;;15.90;99.90;;;;;;5012469;28;20053;-85
2021/08/31 04:29:31;;;;;;;13.63;12.23;;;16.00;99.90;;;;;;5011372;28;20052;-84
2021/08/31 04:31:57;;;;;;;13.50;12.10;;;16.00;99.90;;;;;;5011485;28;20116;-85
2021/08/31 04:34:22;;;;;;;13.55;12.15;;;16.00;99.90;;;;;;5012319;28;20018;-86
2021/08/31 04:36:48;;;;;;;12.75;11.45;;;16.00;99.90;;;;;;5011132;28;20030;-85
2021/08/31 04:39:14;;;;;;;12.13;10.95;;;15.90;99.90;;;;;;5012582;28;20092;-85
2021/08/31 04:41:40;;;;;;;11.45;10.25;;;15.90;99.90;;;;;;5011467;28;20077;-85
2021/08/31 04:44:06;;;;;;;11.65;10.30;;;15.80;99.90;;;;;;5011448;28;20029;-85
2021/08/31 04:46:31;;;;;;;12.40;11.15;;;15.90;99.90;;;;;;5011425;28;20040;-85
2021/08/31 04:48:57;;;;;;;10.48;9.48;;;15.90;99.90;;;;;;5011248;28;20108;-85
2021/08/31 04:51:22;;;;;;;10.82;9.68;;;15.80;99.90;;;;;;5011552;28;20102;-85
2021/08/31 04:53:48;;;;;;;10.57;9.48;;;15.70;99.90;;;;;;5010127;28;20037;-85
2021/08/31 04:56:14;;;;;;;11.15;9.98;;;15.60;99.90;;;;;;5010972;28;20110;-85
2021/08/31 04:58:40;;;;;;;11.18;9.70;;;15.60;99.90;;;;;;5011476;28;20029;-85
2021/08/31 05:01:05;;;;;;;10.25;9.25;;;15.60;99.90;;;;;;5011809;28;20052;-85
2021/08/31 05:03:32;;;;;;;10.77;9.68;;;15.60;99.90;;;;;;5012555;28;20030;-85
2021/08/31 05:05:57;;;;;;;11.52;10.25;;;15.60;99.90;;;;;;5010922;28;20037;-85
2021/08/31 05:08:23;;;;;;;10.88;9.77;;;15.50;99.90;;;;;;5010809;28;20018;-85
2021/08/31 05:10:49;;;;;;;10.88;9.15;;;15.60;99.90;;;;;;5010685;28;20501;-85
2021/08/31 05:13:14;;;;;;;10.48;9.48;;;15.50;99.90;;;;;;5011396;28;20034;-85
2021/08/31 05:15:40;;;;;;;11.30;10.07;;;15.60;99.90;;;;;;5011094;28;20406;-86
2021/08/31 05:18:06;;;;;;;10.63;9.52;;;15.40;99.90;;;;;;5011763;28;20402;-85
2021/08/31 05:20:32;;;;;;;10.50;9.50;;;15.60;99.90;;;;;;5010794;28;20520;-85
2021/08/31 05:22:58;;;;;;;11.95;9.60;;;15.60;99.90;;;;;;5010544;28;20025;-85
2021/08/31 05:25:24;;;;;;;10.57;9.48;;;15.60;99.90;;;;;;5011239;28;20037;-85
2021/08/31 05:27:50;;;;;;;10.02;9.02;;;15.70;99.90;;;;;;5010914;28;20018;-85
2021/08/31 05:30:15;;;;;;;11.27;10.15;;;15.80;99.90;;;;;;5009749;28;20029;-85
2021/08/31 05:32:41;;;;;;;10.43;9.35;;;15.70;99.90;;;;;;5011072;28;20026;-85
2021/08/31 05:35:07;;;;;;;11.50;10.40;;;15.70;99.90;;;;;;5010523;28;20052;-85
2021/08/31 05:37:33;;;;;;;11.15;9.90;;;15.70;99.90;;;;;;5010695;28;20530;-85
2021/08/31 05:39:58;;;;;;;12.65;11.35;;;15.50;99.90;;;;;;5010893;28;20045;-85
2021/08/31 05:42:24;;;;;;;12.55;11.23;;;15.50;99.90;;;;;;5011707;28;20072;-85
2021/08/31 05:44:49;;;;;;;12.93;11.63;;;15.60;99.90;;;;;;5011035;28;20033;-85
2021/08/31 05:47:15;;;;;;;12.25;11.05;;;15.50;99.90;;;;;;5010588;28;20092;-85
2021/08/31 05:49:41;;;;;;;12.60;11.38;;;15.70;99.90;;;;;;5010354;28;20041;-85
2021/08/31 05:52:07;;;;;;;12.70;11.40;;;15.60;99.90;;;;;;5011080;28;20376;-85
2021/08/31 05:54:33;;;;;;;13.65;10.93;;;15.40;99.90;;;;;;5011425;28;20137;-85
2021/08/31 05:57:03;;;;;;;12.73;10.82;;;15.30;99.90;;;;;;5010639;28;20026;-85
2021/08/31 05:59:29;;;;;;;12.68;11.40;;;15.40;99.90;;;;;;5010280;28;20038;-85
2021/08/31 06:01:55;;;;;;;12.40;11.20;;;15.40;99.90;;;;;;5010969;28;20030;-85
2021/08/31 06:04:22;;;;;;;13.00;11.73;;;15.50;99.90;;;;;;5012040;28;20022;-85
2021/08/31 06:06:49;;;;;;;13.57;12.13;;;15.40;99.90;;;;;;5014531;28;20552;-85
2021/08/31 06:09:15;;;;;;;14.35;11.85;;;15.50;99.90;;;;;;5014467;28;20030;-85
2021/08/31 06:11:40;;;;;;;12.98;11.65;;;15.60;99.90;;;;;;5013764;28;20450;-85
2021/08/31 06:14:07;;;;;;;12.45;11.10;;;15.80;99.90;;;;;;5014029;28;20030;-85
2021/08/31 06:16:33;;;;;;;12.30;11.20;;;15.90;99.90;;;;;;5014419;28;20497;-85
2021/08/31 06:19:00;;;;;;;12.77;11.43;;;16.00;99.90;;;;;;5013612;28;20052;-85
2021/08/31 06:21:26;;;;;;;12.38;11.02;;;16.00;99.90;;;;;;5014390;28;20053;-85
2021/08/31 06:23:52;;;;;;;12.32;11.02;;;16.10;99.90;;;;;;5013851;28;20030;-85
2021/08/31 06:26:17;;;;;;;13.32;11.93;;;16.10;99.90;;;;;;5014316;28;20406;-85
2021/08/31 06:28:43;;;;;;;12.43;11.23;;;16.00;99.90;;;;;;5014025;28;20026;-85
2021/08/31 06:31:09;;;;;;;12.50;11.35;;;15.90;99.90;;;;;;5013656;28;20030;-85
2021/08/31 06:33:34;;;;;;;13.35;12.05;;;16.00;99.90;;;;;;5014828;28;20056;-86
2021/08/31 06:36:00;;;;;;;12.95;11.57;;;15.80;99.90;;;;;;5014268;28;20030;-85
2021/08/31 06:38:25;;;;;;;12.90;11.63;;;15.80;99.90;;;;;;5013608;28;20030;-85
2021/08/31 06:40:51;;;;;;;13.13;11.07;;;15.70;99.90;;;;;;5013385;28;20068;-85
2021/08/31 06:43:17;;;;;;;11.73;10.63;;;15.70;99.90;;;;;;5013686;28;20026;-85
2021/08/31 06:45:42;;;;;;;11.35;10.25;;;15.60;99.90;;;;;;5014201;28;20025;-85
2021/08/31 06:48:08;;;;;;;11.77;10.63;;;15.70;99.90;;;;;;5013304;28;20038;-85
2021/08/31 06:50:34;;;;;;;11.20;10.10;;;15.70;99.90;;;;;;5013063;28;20034;-85
2021/08/31 06:53:00;;;;;;;11.57;10.38;;;15.60;99.90;;;;;;5013254;28;20026;-85
2021/08/31 06:55:26;;;;;;;11.10;9.95;;;15.60;99.90;;;;;;5013713;28;20033;-85
2021/08/31 06:57:51;;;;;;;11.85;10.63;;;15.70;99.90;;;;;;5012446;28;20052;-85
2021/08/31 07:00:17;;;;;;;12.30;10.52;;;15.90;99.90;;;;;;5013742;28;20037;-85
2021/08/31 07:02:43;;;;;;;11.45;10.35;;;15.90;99.90;;;;;;5012528;28;20061;-85
2021/08/31 07:05:09;;;;;;;11.68;10.43;;;16.00;99.90;;;;;;5012710;28;20026;-85
2021/08/31 07:07:35;;;;;;;11.52;10.43;;;16.10;99.90;;;;;;5013403;28;20365;-85
2021/08/31 07:10:01;;;;;;;10.63;9.63;;;16.10;99.90;;;;;;5012706;28;20037;-86
2021/08/31 07:12:27;;;;;;;11.65;10.55;;;16.20;99.90;;;;;;5013773;28;20121;-85
2021/08/31 07:14:53;;;;;;;12.10;9.82;;;16.20;99.90;;;;;;5012749;28;20388;-85
2021/08/31 07:17:19;;;;;;;12.27;10.57;;;16.30;99.90;;;;;;5012561;28;20033;-85
2021/08/31 07:19:47;;;;;;;10.75;9.70;;;16.50;99.90;;;;;;5012722;28;20038;-85
2021/08/31 07:22:13;;;;;;;11.32;9.90;;;16.40;99.90;;;;;;5013275;28;20104;-85
2021/08/31 07:24:39;;;;;;;10.38;9.30;;;16.50;99.90;;;;;;5012950;28;20118;-85
2021/08/31 07:27:05;;;;;;;10.02;9.02;;;16.50;99.90;;;;;;5012960;28;20033;-86
2021/08/31 07:29:30;;;;;;;10.27;9.27;;;16.60;99.90;;;;;;5012417;28;20455;-85
2021/08/31 07:31:56;;;;;;;13.80;11.30;;;16.60;99.90;;;;;;5012203;28;20109;-85
2021/08/31 07:34:21;;;;;;;13.30;10.57;;;16.40;99.90;;;;;;5012454;28;20025;-85
2021/08/31 07:36:47;;;;;;;11.35;9.77;;;16.20;99.90;;;;;;5013087;28;20445;-85
2021/08/31 07:39:13;;;;;;;11.45;10.27;;;16.50;99.90;;;;;;5012761;28;20037;-85
2021/08/31 07:41:39;;;;;;;12.38;10.38;;;16.40;99.90;;;;;;5013024;28;20057;-85
2021/08/31 07:44:05;;;;;;;12.35;11.05;;;16.50;99.90;;;;;;5012961;28;20509;-85
2021/08/31 07:46:32;;;;;;;10.82;9.73;;;16.60;99.90;;;;;;5012049;28;20045;-85
2021/08/31 07:48:58;;;;;;;10.88;9.77;;;16.60;99.90;;;;;;5012067;28;20088;-85
2021/08/31 07:51:24;;;;;;;11.65;10.45;;;16.70;99.90;;;;;;5012893;28;20033;-85
2021/08/31 07:53:50;;;;;;;11.63;10.43;;;16.60;99.90;;;;;;5012481;28;20049;-85
2021/08/31 07:56:16;;;;;;;11.80;10.40;;;16.60;99.90;;;;;;5012130;28;20157;-85
2021/08/31 07:58:42;;;;;;;12.02;10.68;;;16.70;99.90;;;;;;5012138;28;20033;-85
2021/08/31 08:01:08;;;;;;;11.40;10.20;;;16.80;99.90;;;;;;5011643;28;20490;-85
2021/08/31 08:03:33;;;;;;;11.18;10.07;;;16.70;99.90;;;;;;5013042;28;20030;-85
2021/08/31 08:05:59;;;;;;;12.95;9.77;;;16.90;99.90;;;;;;5012532;28;20445;-85
2021/08/31 08:08:25;;;;;;;10.52;9.52;;;17.00;99.90;;;;;;5011903;28;20054;-85
2021/08/31 08:10:51;;;;;;;10.15;8.95;;;17.10;99.90;;;;;;5011946;28;20565;-85
2021/08/31 08:13:18;;;;;;;10.20;9.20;;;17.10;99.90;;;;;;5012187;28;20070;-85
2021/08/31 08:15:43;;;;;;;12.07;8.90;;;16.80;99.90;;;;;;5011942;28;20037;-85
2021/08/31 08:18:09;;;;;;;9.30;8.40;;;17.00;99.90;;;;;;5010823;28;20025;-85
2021/08/31 08:20:35;;;;;;;9.38;8.27;;;17.00;99.90;;;;;;5012412;28;20073;-85
2021/08/31 08:23:01;;;;;;;9.85;8.85;;;17.20;99.90;;;;;;5011638;28;20084;-85
2021/08/31 08:25:27;;;;;;;11.52;10.27;;;17.20;99.90;;;;;;5011783;28;20083;-85
2021/08/31 08:27:52;;;;;;;9.57;8.68;;;17.20;99.90;;;;;;5011840;28;20022;-85
2021/08/31 08:30:18;;;;;;;9.43;8.52;;;17.30;99.90;;;;;;5011874;28;20041;-85
2021/08/31 08:32:44;;;;;;;10.75;9.50;;;17.50;99.90;;;;;;5011243;28;20022;-85
2021/08/31 08:35:11;;;;;;;9.45;8.45;;;17.60;99.90;;;;;;5011856;28;20021;-86
2021/08/31 08:37:38;;;;;;;9.95;9.00;;;17.50;99.90;;;;;;5011456;28;20033;-85
2021/08/31 08:40:04;;;;;;;11.25;10.07;;;17.50;99.90;;;;;;4995854;28;20052;-85
2021/08/31 08:42:30;;;;;;;10.20;9.30;;;17.20;99.90;;;;;;5010903;28;20041;-85
2021/08/31 08:44:56;;;;;;;10.10;9.10;;;17.30;99.90;;;;;;5010981;28;20029;-85
2021/08/31 08:47:22;;;;;;;11.15;9.88;;;17.50;99.90;;;;;;5011028;28;20033;-85
2021/08/31 08:49:49;;;;;;;10.05;9.00;;;17.70;99.90;;;;;;5011443;28;20026;-86
2021/08/31 08:52:15;;;;;;;11.30;9.82;;;17.90;99.90;;;;;;5012247;28;20113;-85
2021/08/31 08:54:42;;;;;;;10.70;9.52;;;18.10;99.90;;;;;;5026704;28;20029;-85
2021/08/31 08:57:08;;;;;;;10.88;9.02;;;18.10;99.90;;;;;;5010985;28;20034;-86
2021/08/31 08:59:38;;;;;;;10.40;9.40;;;18.10;99.90;;;;;;5011218;28;20041;-85
2021/08/31 09:02:05;;;;;;;10.60;9.48;;;18.40;99.90;;;;;;5011572;28;20505;-86
2021/08/31 09:04:48;;;;;;;10.63;9.55;;;18.50;99.90;;;;;;5011348;28;20076;-85
2021/08/31 09:07:17;;;;;;;9.77;8.68;;;18.40;99.90;;;;;;4996928;28;20022;-85
2021/08/31 09:09:43;;;;;;;9.80;8.73;;;18.50;99.90;;;;;;5011408;28;20120;-85
2021/08/31 09:12:34;;;;;;;9.40;8.50;;;18.50;99.90;;;;;;5011135;28;20488;-86
2021/08/31 09:15:23;;;;;;;10.35;9.00;;;18.60;99.90;;;;;;5011368;28;20041;-86
2021/08/31 09:18:04;;;;;;;8.98;8.07;;;18.40;99.90;;;;;;5003489;28;20125;-86
2021/08/31 09:20:34;;;;;;;10.05;9.05;;;18.50;99.90;;;;;;5010825;28;20064;-85
2021/08/31 09:23:00;;;;;;;9.55;8.50;;;18.60;99.90;;;;;;5011061;28;20026;-85
2021/08/31 09:25:40;;;;;;;9.82;8.82;;;18.70;99.90;;;;;;5009753;28;20048;-85
2021/08/31 09:28:21;;;;;;;8.75;7.85;;;18.90;99.90;;;;;;4995393;28;20115;-85
2021/08/31 09:30:55;;;;;;;8.45;7.65;;;19.10;99.90;;;;;;5011246;28;20040;-86
2021/08/31 09:33:21;;;;;;;8.82;8.00;;;19.40;99.90;;;;;;5010406;28;20026;-85
2021/08/31 09:36:00;;;;;;;8.75;7.85;;;19.40;99.90;;;;;;5011417;28;20030;-86
2021/08/31 09:38:47;;;;;;;9.55;8.55;;;19.20;99.90;;;;;;5011196;28;20026;-86
2021/08/31 09:41:38;;;;;;;9.07;8.18;;;18.90;99.90;;;;;;5014121;28;20060;-85
2021/08/31 09:44:08;;;;;;;9.40;8.40;;;18.80;99.90;;;;;;5014503;28;20026;-85
2021/08/31 09:46:57;;;;;;;15.00;11.73;;;19.00;99.90;;;;;;5014593;28;20056;-86
2021/08/31 09:49:28;;;;;;;9.45;8.45;;;19.00;99.90;;;;;;5001220;28;20036;-86
2021/08/31 09:52:10;;;;;;;11.30;9.45;;;19.00;99.90;;;;;;5015018;28;20022;-86
2021/08/31 09:54:44;;;;;;;10.93;8.75;;;18.80;99.90;;;;;;5011611;28;20445;-85
2021/08/31 09:57:30;;;;;;;8.70;7.80;;;19.20;99.90;;;;;;5014112;28;20018;-85
2021/08/31 09:59:58;;;;;;;10.15;9.13;;;19.60;99.90;;;;;;5014030;28;20040;-85
2021/08/31 10:02:24;;;;;;;9.88;8.73;;;19.60;99.90;;;;;;5014381;28;20046;-85
2021/08/31 10:04:51;;;;;;;9.25;8.35;;;19.80;99.90;;;;;;5014170;28;20026;-85
2021/08/31 10:07:19;;;;;;;9.55;8.65;;;20.10;99.90;;;;;;5014138;28;20508;-85
2021/08/31 10:09:46;;;;;;;10.23;8.20;;;19.80;99.90;;;;;;5014043;28;20037;-86
2021/08/31 10:12:16;;;;;;;9.48;8.48;;;20.10;99.90;;;;;;5014543;28;20060;-85
2021/08/31 10:14:43;;;;;;;9.20;7.93;;;20.60;99.90;;;;;;5014205;28;20033;-85
2021/08/31 10:17:11;;;;;;;9.18;7.72;;;20.90;99.90;;;;;;5014429;28;20022;-86
2021/08/31 10:19:41;;;;;;;8.68;7.55;;;21.00;99.90;;;;;;5014066;28;20033;-85
2021/08/31 10:22:10;;;;;;;9.45;7.70;;;21.30;99.90;;;;;;4998761;28;20502;-86
2021/08/31 10:24:36;;;;;;;9.15;8.35;;;21.90;99.90;;;;;;5014266;28;20033;-86
2021/08/31 10:27:34;;;;;;;10.25;8.80;;;23.30;99.90;;;;;;5013964;28;20505;-86
2021/08/31 10:30:18;;;;;;;8.40;7.47;;;23.30;99.90;;;;;;5013618;28;20490;-85
2021/08/31 10:32:51;;;;;;;8.85;7.70;;;24.00;99.90;;;;;;5013520;28;20050;-86
2021/08/31 10:35:32;;;;;;;7.82;7.03;;;24.70;99.90;;;;;;5014006;28;20065;-86
2021/08/31 10:38:05;;;;;;;9.02;7.25;;;24.90;99.90;;;;;;5013893;28;20028;-86
2021/08/31 10:40:43;;;;;;;8.13;7.22;;;24.70;99.90;;;;;;5013173;28;20155;-85
2021/08/31 10:43:14;;;;;;;7.82;7.10;;;27.60;99.90;;;;;;4998501;28;20029;-86
2021/08/31 10:45:41;;;;;;;7.75;7.03;;;28.40;99.90;;;;;;5014332;28;20033;-85
2021/08/31 10:48:39;;;;;;;7.82;7.00;;;27.00;99.90;;;;;;5012434;28;20032;-85
2021/08/31 10:51:09;;;;;;;8.43;7.47;;;26.40;99.90;;;;;;4947806;29;20411;-86
2021/08/31 10:53:47;;;;;;;7.13;6.47;;;31.10;99.90;;;;;;4948149;29;20130;-86
2021/08/31 10:56:22;;;;;;;7.82;7.03;;;34.20;99.90;;;;;;4948396;29;20532;-86
2021/08/31 10:58:52;;;;;;;7.70;7.00;;;33.50;99.90;;;;;;4948699;29;20070;-86
2021/08/31 11:01:27;;;;;;;6.85;6.25;;;33.40;99.90;;;;;;4950982;29;20047;-86
2021/08/31 11:03:54;;;;;;;6.97;6.35;;;33.70;99.90;;;;;;4951744;29;20063;-86
2021/08/31 11:06:31;;;;;;;7.30;6.60;;;30.30;99.90;;;;;;4949000;29;20139;-86
2021/08/31 11:09:12;;;;;;;6.72;6.13;;;30.90;99.90;;;;;;4948510;29;20043;-85
2021/08/31 11:11:39;;;;;;;6.38;5.78;;;35.20;98.50;;;;;;4948765;29;20091;-86
2021/08/31 11:14:05;;;;;;;6.75;6.10;;;36.80;95.60;;;;;;4948728;29;20027;-86
2021/08/31 11:16:37;;;;;;;7.07;5.97;;;37.70;98.00;;;;;;4949760;29;20423;-86
2021/08/31 11:19:04;;;;;;;6.50;5.90;;;38.00;91.50;;;;;;4952946;29;20042;-85
2021/08/31 11:21:30;;;;;;;6.25;5.65;;;38.60;88.30;;;;;;4948729;29;20035;-86
2021/08/31 11:24:07;;;;;;;7.88;6.20;;;39.40;84.20;;;;;;4947771;29;20097;-86
2021/08/31 11:26:33;;;;;;;7.20;5.70;;;39.60;81.50;;;;;;4975708;28;20046;-86
2021/08/31 11:29:09;;;;;;;7.65;6.65;;;40.00;82.00;;;;;;5013766;28;20087;-86
2021/08/31 11:31:36;;;;;;;7.28;6.57;;;39.20;81.70;;;;;;5012951;28;20041;-86
2021/08/31 11:34:02;;;;;;;6.65;5.53;;;38.90;79.80;;;;;;5012601;28;20505;-86
2021/08/31 11:36:31;;;;;;;6.18;5.68;;;39.80;73.30;;;;;;5013567;28;20033;-86
2021/08/31 11:39:01;;;;;;;6.50;5.45;;;39.50;75.10;;;;;;5012702;28;20540;-86
2021/08/31 11:41:28;;;;;;;6.40;5.80;;;39.30;75.30;;;;;;5012164;28;20033;-86
2021/08/31 11:43:56;;;;;;;6.05;5.47;;;39.10;73.90;;;;;;5012351;28;20100;-86
2021/08/31 11:46:28;;;;;;;6.05;5.50;;;39.80;73.10;;;;;;5013026;28;20026;-86
2021/08/31 11:49:29;;;;;;;6.22;5.63;;;40.50;69.90;;;;;;5013265;28;20120;-87
2021/08/31 11:52:11;;;;;;;6.50;5.90;;;40.50;67.90;;;;;;4970172;28;20466;-87
2021/08/31 11:54:42;;;;;;;5.85;5.40;;;39.70;68.70;;;;;;4971151;28;20050;-87
2021/08/31 11:57:09;;;;;;;5.20;4.80;;;40.30;66.50;;;;;;4970975;28;20038;-87
2021/08/31 11:59:38;;;;;;;6.22;5.55;;;40.20;65.40;;;;;;4971293;28;20129;-87
2021/08/31 12:02:11;;;;;;;5.32;4.93;;;40.30;63.40;;;;;;4970853;28;20038;-87
2021/08/31 12:04:37;;;;;;;5.70;5.00;;;40.50;65.30;;;;;;4971338;28;20026;-87
2021/08/31 12:07:04;;;;;;;5.53;5.05;;;41.90;57.90;;;;;;4970067;28;20049;-87
2021/08/31 12:09:31;;;;;;;5.78;5.38;;;43.00;54.70;;;;;;4971683;28;20491;-87
2021/08/31 12:11:57;;;;;;;5.68;5.28;;;42.40;52.20;;;;;;4970808;28;20078;-88
2021/08/31 12:14:22;;;;;;;6.20;4.80;;;42.10;53.50;;;;;;4971534;28;20104;-87
2021/08/31 12:16:49;;;;;;;5.30;4.90;;;42.00;52.90;;;;;;4971082;28;20169;-88
2021/08/31 12:19:16;;;;;;;5.63;4.57;;;41.60;53.30;;;;;;4971005;28;20043;-87
2021/08/31 12:21:42;;;;;;;5.18;4.68;;;41.00;55.80;;;;;;4971047;28;20035;-87
2021/08/31 12:24:14;;;;;;;6.10;4.88;;;40.70;54.50;;;;;;4970849;28;20539;-87
2021/08/31 12:26:40;;;;;;;5.45;4.82;;;41.00;55.50;;;;;;5005019;28;20034;-87
2021/08/31 12:29:10;;;;;;;5.25;4.60;;;41.10;53.80;;;;;;5012379;28;20505;-88
2021/08/31 12:31:37;;;;;;;5.65;4.72;;;41.80;52.20;;;;;;5011919;28;20393;-87
2021/08/31 12:34:29;;;;;;;4.50;4.20;;;40.80;55.10;;;;;;5012348;28;20508;-87
2021/08/31 12:36:55;;;;;;;4.85;4.25;;;40.60;54.90;;;;;;5011249;28;20065;-88
2021/08/31 12:39:29;;;;;;;4.60;4.15;;;40.50;54.00;;;;;;5012440;28;20038;-88
2021/08/31 12:41:57;;;;;;;4.43;4.10;;;40.60;56.30;;;;;;5012019;28;20026;-87
2021/08/31 12:44:23;;;;;;;6.70;4.40;;;40.80;54.70;;;;;;5011831;28;20029;-87